createdAt,value
2023-01-25T00:02:22.529Z,102296.53
2023-01-25T00:04:50.938Z,102285.38
2023-01-25T00:07:19.384Z,102289.72
2023-01-25T00:09:47.786Z,102285.50
2023-01-25T00:12:16.264Z,102285.50
2023-01-25T00:14:44.674Z,102281.81
2023-01-25T00:17:13.113Z,102278.41
2023-01-25T00:19:41.514Z,102281.59
2023-01-25T00:22:09.911Z,102274.84
2023-01-25T00:24:38.522Z,102287.22
2023-01-25T00:27:06.940Z,102285.38
2023-01-25T00:29:35.307Z,102275.56
2023-01-25T00:33:17.348Z,102269.03
2023-01-25T00:35:58.471Z,102269.31
2023-01-25T00:38:35.057Z,102271.94
2023-01-25T00:41:03.535Z,102277.19
2023-01-25T00:43:31.887Z,102278.81
2023-01-25T00:46:03.201Z,102275.16
2023-01-25T00:48:31.759Z,102276.28
2023-01-25T00:51:03.320Z,102269.59
2023-01-25T00:53:31.706Z,102278.97
2023-01-25T00:56:00.113Z,102280.50
2023-01-25T00:58:28.932Z,102289.22
2023-01-25T01:00:58.344Z,102276.72
2023-01-25T01:03:26.761Z,102276.44
2023-01-25T01:06:35.373Z,102271.09
2023-01-25T01:09:04.160Z,102268.59
2023-01-25T01:11:32.537Z,102269.97
2023-01-25T01:15:14.559Z,102263.13
2023-01-25T01:18:56.676Z,102277.09
2023-01-25T01:21:25.343Z,102271.50
2023-01-25T01:23:54.981Z,102262.88
2023-01-25T01:26:23.493Z,102268.13
2023-01-25T01:28:52.071Z,102253.88
2023-01-25T01:31:24.250Z,102252.09
2023-01-25T01:33:54.826Z,102256.31
2023-01-25T01:36:29.614Z,102246.66
2023-01-25T01:38:59.038Z,102241.44
2023-01-25T01:41:27.715Z,102237.00
2023-01-25T01:43:56.115Z,102235.00
2023-01-25T01:46:40.073Z,102228.25
2023-01-25T01:49:19.998Z,102221.22
2023-01-25T01:52:02.082Z,102209.56
2023-01-25T01:54:37.902Z,102203.31
2023-01-25T01:57:32.633Z,102203.88
2023-01-25T02:00:11.924Z,102181.84
2023-01-25T02:02:46.850Z,102188.03
2023-01-25T02:05:40.753Z,102193.28
2023-01-25T02:08:12.499Z,102188.88
2023-01-25T02:10:42.600Z,102180.84
2023-01-25T02:13:11.561Z,102180.75
2023-01-25T02:15:48.110Z,102175.28
2023-01-25T02:18:16.787Z,102172.88
2023-01-25T02:20:52.141Z,102177.56
2023-01-25T02:23:50.840Z,102160.53
2023-01-25T02:26:20.213Z,102165.28
2023-01-25T02:28:58.865Z,102161.25
2023-01-25T02:31:27.823Z,102160.63
2023-01-25T02:33:56.496Z,102162.25
2023-01-25T02:36:34.712Z,102172.75
2023-01-25T02:39:11.467Z,102163.72
2023-01-25T02:41:42.288Z,102165.28
2023-01-25T02:44:22.984Z,102164.22
2023-01-25T02:46:51.475Z,102159.56
2023-01-25T02:49:20.820Z,102165.31
2023-01-25T02:51:55.821Z,102159.84
2023-01-25T02:54:25.799Z,102160.47
2023-01-25T02:56:54.359Z,102159.84
2023-01-25T02:59:23.577Z,102156.88
2023-01-25T03:01:52.165Z,102155.78
2023-01-25T03:04:20.707Z,102145.41
2023-01-25T03:06:49.068Z,102156.84
2023-01-25T03:09:17.439Z,102144.25
2023-01-25T03:11:45.872Z,102135.28
2023-01-25T03:14:14.306Z,102141.41
2023-01-25T03:16:42.711Z,102141.00
2023-01-25T03:19:11.081Z,102136.00
2023-01-25T03:21:41.017Z,102134.28
2023-01-25T03:24:11.463Z,102127.75
2023-01-25T03:26:54.117Z,102129.22
2023-01-25T03:29:22.762Z,102129.06
2023-01-25T03:31:51.547Z,102126.97
2023-01-25T03:34:20.337Z,102115.44
2023-01-25T03:36:49.158Z,102120.72
2023-01-25T03:39:17.793Z,102113.66
2023-01-25T03:41:46.408Z,102117.34
2023-01-25T03:44:15.293Z,102118.91
2023-01-25T03:46:44.211Z,102115.00
2023-01-25T03:49:13.170Z,102121.22
2023-01-25T03:51:41.825Z,102122.63
2023-01-25T03:54:10.413Z,102122.56
2023-01-25T03:56:39.622Z,102119.84
2023-01-25T03:59:08.582Z,102115.91
2023-01-25T04:01:37.386Z,102122.75
2023-01-25T04:04:06.050Z,102122.59
2023-01-25T04:06:34.729Z,102113.66
2023-01-25T04:09:03.366Z,102120.81
2023-01-25T04:11:32.499Z,102112.53
2023-01-25T04:14:01.426Z,102115.88
2023-01-25T04:16:31.522Z,102110.47
2023-01-25T04:19:00.418Z,102104.84
2023-01-25T04:21:29.375Z,102108.97
2023-01-25T04:23:58.078Z,102101.06
2023-01-25T04:26:27.085Z,102102.06
2023-01-25T04:28:55.875Z,102099.16
2023-01-25T04:31:24.597Z,102096.97
2023-01-25T04:33:53.257Z,102091.78
2023-01-25T04:36:21.888Z,102084.69
2023-01-25T04:38:50.742Z,102092.41
2023-01-25T04:41:19.382Z,102091.50
2023-01-25T04:43:47.964Z,102095.66
2023-01-25T04:46:16.767Z,102089.50
2023-01-25T04:48:45.690Z,102090.50
2023-01-25T04:51:15.133Z,102079.03
2023-01-25T04:53:43.849Z,102074.72
2023-01-25T04:56:12.413Z,102082.47
2023-01-25T04:58:41.140Z,102078.28
2023-01-25T05:01:10.386Z,102082.75
2023-01-25T05:03:39.170Z,102085.00
2023-01-25T05:06:08.027Z,102077.25
2023-01-25T05:08:36.902Z,102075.28
2023-01-25T05:11:05.771Z,102070.09
2023-01-25T05:13:35.467Z,102069.31
2023-01-25T05:16:09.017Z,102069.53
2023-01-25T05:18:47.950Z,102067.69
2023-01-25T05:21:33.557Z,102070.31
2023-01-25T05:24:02.210Z,102075.44
2023-01-25T05:26:48.141Z,102071.59
2023-01-25T05:29:17.508Z,102068.41
2023-01-25T05:31:46.264Z,102074.16
2023-01-25T05:34:15.225Z,102056.38
2023-01-25T05:36:43.832Z,102071.25
2023-01-25T05:39:12.522Z,102061.97
2023-01-25T05:41:41.201Z,102067.53
2023-01-25T05:44:09.876Z,102060.56
2023-01-25T05:46:38.542Z,102058.66
2023-01-25T05:49:07.266Z,102062.09
2023-01-25T05:51:36.517Z,102054.16
2023-01-25T05:54:06.132Z,102057.59
2023-01-25T05:56:35.391Z,102062.25
2023-01-25T05:59:04.284Z,102051.88
2023-01-25T06:01:32.959Z,102062.25
2023-01-25T06:04:01.879Z,102055.97
2023-01-25T06:06:30.795Z,102059.63
2023-01-25T06:08:59.471Z,102058.59
2023-01-25T06:11:28.070Z,102059.91
2023-01-25T06:13:56.781Z,102060.94
2023-01-25T06:16:25.442Z,102051.53
2023-01-25T06:18:54.475Z,102052.19
2023-01-25T06:21:23.129Z,102043.81
2023-01-25T06:23:51.801Z,102052.69
2023-01-25T06:26:20.912Z,102051.69
2023-01-25T06:28:50.059Z,102048.72
2023-01-25T06:31:20.175Z,102047.22
2023-01-25T06:33:53.207Z,102045.06
2023-01-25T06:36:23.941Z,102037.94
2023-01-25T06:38:53.721Z,102043.91
2023-01-25T06:41:22.863Z,102037.53
2023-01-25T06:43:56.276Z,102043.75
2023-01-25T06:46:25.050Z,102042.84
2023-01-25T06:48:53.720Z,102037.06
2023-01-25T06:51:22.575Z,102036.97
2023-01-25T06:53:51.286Z,102035.28
2023-01-25T06:56:23.670Z,102040.41
2023-01-25T06:58:52.925Z,102035.50
2023-01-25T07:01:27.330Z,102022.66
2023-01-25T07:03:59.194Z,102024.69
2023-01-25T07:06:34.747Z,102015.56
2023-01-25T07:09:14.050Z,102018.72
2023-01-25T07:11:42.673Z,102016.59
2023-01-25T07:14:11.220Z,102019.06
2023-01-25T07:16:39.987Z,102010.00
2023-01-25T07:19:13.359Z,102014.09
2023-01-25T07:21:42.324Z,102006.94
2023-01-25T07:24:18.012Z,102002.22
2023-01-25T07:26:46.666Z,102022.00
2023-01-25T07:29:17.154Z,102016.34
2023-01-25T07:31:45.851Z,102006.13
2023-01-25T07:34:15.382Z,101998.41
2023-01-25T07:36:44.873Z,101999.94
2023-01-25T07:39:18.307Z,101994.47
2023-01-25T07:41:47.408Z,101999.56
2023-01-25T07:44:16.076Z,102004.66
2023-01-25T07:46:44.892Z,101988.69
2023-01-25T07:49:13.519Z,101991.16
2023-01-25T07:51:42.395Z,101990.13
2023-01-25T07:54:13.037Z,101986.50
2023-01-25T07:56:41.672Z,101978.38
2023-01-25T07:59:12.106Z,101977.38
2023-01-25T08:01:41.343Z,101973.56
2023-01-25T08:04:10.216Z,101976.03
2023-01-25T08:06:40.130Z,101965.34
2023-01-25T08:09:14.713Z,101982.00
2023-01-25T08:11:43.938Z,101966.16
2023-01-25T08:14:12.715Z,101973.41
2023-01-25T08:16:41.452Z,101974.34
2023-01-25T08:19:12.243Z,101972.59
2023-01-25T08:21:41.082Z,101966.16
2023-01-25T08:24:10.707Z,101976.06
2023-01-25T08:26:39.616Z,101971.50
2023-01-25T08:29:11.626Z,101965.94
2023-01-25T08:31:45.249Z,101967.31
2023-01-25T08:34:15.021Z,101962.59
2023-01-25T08:36:43.619Z,101966.75
2023-01-25T08:39:14.321Z,101965.06
2023-01-25T08:41:43.198Z,101965.81
2023-01-25T08:44:12.204Z,101970.50
2023-01-25T08:46:41.548Z,101960.94
2023-01-25T08:49:10.917Z,101970.50
2023-01-25T08:51:39.528Z,101967.69
2023-01-25T08:54:11.191Z,101968.63
2023-01-25T08:56:43.752Z,101961.81
2023-01-25T08:59:15.759Z,101949.13
2023-01-25T09:01:44.508Z,101945.53
2023-01-25T09:04:13.148Z,101940.13
2023-01-25T09:06:41.860Z,101946.22
2023-01-25T09:09:10.502Z,101941.75
2023-01-25T09:11:40.418Z,101936.22
2023-01-25T09:14:09.096Z,101941.16
2023-01-25T09:16:37.859Z,101938.47
2023-01-25T09:19:06.941Z,101941.94
2023-01-25T09:21:37.164Z,101939.16
2023-01-25T09:24:08.984Z,101921.50
2023-01-25T09:26:45.942Z,101924.91
2023-01-25T09:29:18.747Z,101930.00
2023-01-25T09:31:47.732Z,101926.41
2023-01-25T09:34:17.424Z,101928.13
2023-01-25T09:36:46.297Z,101922.09
2023-01-25T09:39:15.310Z,101931.84
2023-01-25T09:41:51.956Z,101930.00
2023-01-25T09:44:23.670Z,101924.56
2023-01-25T09:47:00.007Z,101926.59
2023-01-25T09:49:31.425Z,101918.69
2023-01-25T09:52:46.245Z,101916.00
2023-01-25T09:55:18.649Z,101907.94
2023-01-25T09:57:51.087Z,101905.19
2023-01-25T10:00:37.106Z,101906.22
2023-01-25T10:03:32.480Z,101907.56
2023-01-25T10:06:03.687Z,101909.41
2023-01-25T10:08:46.399Z,101902.56
2023-01-25T10:11:33.078Z,101909.41
2023-01-25T10:14:02.164Z,101897.81
2023-01-25T10:17:01.855Z,101889.84
2023-01-25T10:20:28.426Z,101889.56
2023-01-25T10:24:06.242Z,101890.38
2023-01-25T10:26:38.040Z,101881.44
2023-01-25T10:29:30.819Z,101875.25
2023-01-25T10:32:32.484Z,101876.06
2023-01-25T10:35:34.888Z,101861.94
2023-01-25T10:38:14.873Z,101858.34
2023-01-25T10:40:52.147Z,101853.69
2023-01-25T10:43:23.673Z,101858.03
2023-01-25T10:45:53.113Z,101858.00
2023-01-25T10:48:31.191Z,101841.09
2023-01-25T10:51:02.376Z,101840.88
2023-01-25T10:53:42.293Z,101843.69
2023-01-25T10:56:26.904Z,101834.47
2023-01-25T10:59:20.529Z,101833.38
2023-01-25T11:01:49.389Z,101834.22
2023-01-25T11:04:38.406Z,101832.28
2023-01-25T11:07:07.519Z,101823.53
2023-01-25T11:09:40.821Z,101817.41
2023-01-25T11:12:21.223Z,101808.84
2023-01-25T11:14:51.616Z,101810.28
2023-01-25T11:17:32.558Z,101813.75
2023-01-25T11:20:22.555Z,101804.69
2023-01-25T11:22:57.177Z,101803.16
2023-01-25T11:25:35.388Z,101794.34
2023-01-25T11:28:18.752Z,101790.69
2023-01-25T11:31:02.209Z,101781.09
2023-01-25T11:33:32.604Z,101779.13
2023-01-25T11:36:21.119Z,101769.09
2023-01-25T11:39:33.774Z,101765.53
2023-01-25T11:42:02.546Z,101769.84
2023-01-25T11:45:24.695Z,101761.88
2023-01-25T11:48:23.105Z,101759.13
2023-01-25T11:51:51.187Z,101752.06
2023-01-25T11:54:47.591Z,101752.56
2023-01-25T11:57:50.460Z,101743.91
2023-01-25T12:00:32.707Z,101727.38
2023-01-25T12:03:58.400Z,101721.75
2023-01-25T12:06:30.277Z,101724.22
2023-01-25T12:09:01.734Z,101723.84
2023-01-25T12:11:36.315Z,101714.00
2023-01-25T12:14:11.039Z,101711.53
2023-01-25T12:17:14.720Z,101696.50
2023-01-25T12:20:09.071Z,101692.84
2023-01-25T12:23:16.316Z,101690.31
2023-01-25T12:26:09.011Z,101681.31
2023-01-25T12:29:18.047Z,101670.59
2023-01-25T12:32:04.336Z,101672.25
2023-01-25T12:34:42.240Z,101676.78
2023-01-25T12:37:20.365Z,101669.06
2023-01-25T12:40:22.542Z,101662.88
2023-01-25T12:43:01.701Z,101660.91
2023-01-25T12:45:36.369Z,101657.25
2023-01-25T12:48:22.593Z,101648.50
2023-01-25T12:50:58.139Z,101652.41
2023-01-25T12:53:26.745Z,101640.84
2023-01-25T12:55:56.764Z,101635.22
2023-01-25T12:58:51.412Z,101627.31
2023-01-25T13:01:28.540Z,101618.00
2023-01-25T13:04:43.971Z,101612.75
2023-01-25T13:07:31.108Z,101613.34
2023-01-25T13:10:01.361Z,101606.19
2023-01-25T13:12:30.041Z,101607.03
2023-01-25T13:14:59.559Z,101599.03
2023-01-25T13:17:38.389Z,101598.09
2023-01-25T13:20:41.783Z,101594.06
2023-01-25T13:23:43.941Z,101578.25
2023-01-25T13:26:24.814Z,101575.63
2023-01-25T13:28:56.239Z,101571.09
2023-01-25T13:31:53.746Z,101577.31
2023-01-25T13:34:37.580Z,101574.31
2023-01-25T13:37:26.137Z,101564.34
2023-01-25T13:40:24.366Z,101563.13
2023-01-25T13:43:23.286Z,101553.34
2023-01-25T13:45:53.977Z,101552.41
2023-01-25T13:48:37.480Z,101541.75
2023-01-25T13:51:14.262Z,101540.09
2023-01-25T13:53:43.459Z,101540.09
2023-01-25T13:56:31.463Z,101534.91
2023-01-25T13:59:00.297Z,101533.22
2023-01-25T14:01:32.021Z,101537.72
2023-01-25T14:04:05.447Z,101531.25
2023-01-25T14:06:42.223Z,101529.00
2023-01-25T14:09:29.206Z,101521.94
2023-01-25T14:12:03.236Z,101522.69
2023-01-25T14:14:36.074Z,101518.38
2023-01-25T14:17:17.720Z,101517.13
2023-01-25T14:19:57.833Z,101505.09
2023-01-25T14:22:27.114Z,101504.25
2023-01-25T14:25:13.536Z,101507.34
2023-01-25T14:27:54.078Z,101500.31
2023-01-25T14:30:30.526Z,101505.69
2023-01-25T14:33:20.248Z,101503.03
2023-01-25T14:35:56.467Z,101497.00
2023-01-25T14:38:37.964Z,101494.03
2023-01-25T14:41:30.703Z,101490.63
2023-01-25T14:44:05.200Z,101498.72
2023-01-25T14:46:37.367Z,101485.75
2023-01-25T14:49:14.745Z,101484.69
2023-01-25T14:52:26.001Z,101486.41
2023-01-25T14:54:58.774Z,101477.84
2023-01-25T14:57:39.892Z,101473.25
2023-01-25T15:00:34.557Z,101461.31
2023-01-25T15:03:07.305Z,101450.78
2023-01-25T15:05:38.084Z,101456.91
2023-01-25T15:08:09.343Z,101461.41
2023-01-25T15:10:40.290Z,101451.44
2023-01-25T15:13:15.609Z,101449.84
2023-01-25T15:15:54.460Z,101449.28
2023-01-25T15:18:42.688Z,101450.13
2023-01-25T15:21:22.482Z,101448.25
2023-01-25T15:23:51.743Z,101443.28
2023-01-25T15:26:28.682Z,101438.47
2023-01-25T15:29:20.936Z,101436.69
2023-01-25T15:31:51.629Z,101437.75
2023-01-25T15:34:32.520Z,101434.25
2023-01-25T15:39:54.312Z,101423.16
2023-01-25T15:42:23.029Z,101412.16
2023-01-25T15:44:51.674Z,101411.50
2023-01-25T15:47:20.347Z,101408.69
2023-01-25T15:49:49.576Z,101415.53
2023-01-25T15:52:18.167Z,101411.22
2023-01-25T15:54:55.905Z,101404.00
2023-01-25T15:57:34.594Z,101400.41
2023-01-25T16:00:03.709Z,101401.16
2023-01-25T16:02:32.361Z,101400.66
2023-01-25T16:05:01.042Z,101391.56
2023-01-25T16:07:31.204Z,101395.84
2023-01-25T16:09:59.847Z,101403.66
2023-01-25T16:12:28.488Z,101393.63
2023-01-25T16:14:57.638Z,101394.69
2023-01-25T16:17:27.182Z,101386.50
2023-01-25T16:19:55.757Z,101380.31
2023-01-25T16:22:24.406Z,101379.47
2023-01-25T16:24:53.325Z,101377.56
2023-01-25T16:27:25.738Z,101387.25
2023-01-25T16:29:56.196Z,101378.63
2023-01-25T16:32:24.793Z,101372.81
2023-01-25T16:34:53.395Z,101370.19
2023-01-25T16:37:22.193Z,101369.53
2023-01-25T16:39:52.003Z,101371.69
2023-01-25T16:42:22.680Z,101362.38
2023-01-25T16:44:51.549Z,101368.41
2023-01-25T16:47:20.217Z,101368.22
2023-01-25T16:49:48.844Z,101370.19
2023-01-25T16:52:17.388Z,101367.09
2023-01-25T16:54:46.064Z,101364.34
2023-01-25T16:57:20.261Z,101359.75
2023-01-25T16:59:49.348Z,101359.75
2023-01-25T17:02:18.147Z,101353.81
2023-01-25T17:04:46.768Z,101354.47
2023-01-25T17:07:15.623Z,101345.53
2023-01-25T17:09:44.339Z,101346.13
2023-01-25T17:12:14.695Z,101340.13
2023-01-25T17:14:43.288Z,101334.66
2023-01-25T17:17:11.945Z,101330.34
2023-01-25T17:19:40.514Z,101336.53
2023-01-25T17:22:09.614Z,101337.03
2023-01-25T17:24:38.387Z,101327.06
2023-01-25T17:27:07.560Z,101318.88
2023-01-25T17:29:36.057Z,101318.63
2023-01-25T17:32:04.696Z,101326.41
2023-01-25T17:34:33.348Z,101321.13
2023-01-25T17:37:01.949Z,101316.72
2023-01-25T17:39:30.656Z,101313.06
2023-01-25T17:41:59.253Z,101312.84
2023-01-25T17:44:28.268Z,101304.69
2023-01-25T17:46:56.963Z,101314.16
2023-01-25T17:49:26.465Z,101312.28
2023-01-25T17:51:55.093Z,101307.84
2023-01-25T17:54:23.655Z,101300.72
2023-01-25T17:56:54.162Z,101301.56
2023-01-25T17:59:22.932Z,101305.66
2023-01-25T18:01:51.556Z,101292.50
2023-01-25T18:04:20.682Z,101296.31
2023-01-25T18:06:49.367Z,101288.91
2023-01-25T18:09:17.944Z,101282.25
2023-01-25T18:11:48.023Z,101281.28
2023-01-25T18:14:17.153Z,101277.06
2023-01-25T18:16:46.207Z,101274.34
2023-01-25T18:19:15.288Z,101262.97
2023-01-25T18:21:43.982Z,101265.41
2023-01-25T18:24:34.131Z,101266.06
2023-01-25T18:27:24.816Z,101267.00
2023-01-25T18:30:35.497Z,101260.03
2023-01-25T18:33:05.625Z,101255.94
2023-01-25T18:35:35.165Z,101259.50
2023-01-25T18:38:03.734Z,101253.41
2023-01-25T18:40:32.459Z,101256.22
2023-01-25T18:43:01.583Z,101243.19
2023-01-25T18:45:30.313Z,101238.66
2023-01-25T18:48:00.874Z,101229.03
2023-01-25T18:50:31.226Z,101232.28
2023-01-25T18:52:59.933Z,101240.19
2023-01-25T18:55:28.631Z,101226.38
2023-01-25T18:58:04.016Z,101226.66
2023-01-25T19:00:34.424Z,101231.00
2023-01-25T19:03:03.593Z,101228.88
2023-01-25T19:05:32.277Z,101222.38
2023-01-25T19:08:00.917Z,101211.84
2023-01-25T19:10:29.659Z,101215.22
2023-01-25T19:12:58.362Z,101210.34
2023-01-25T19:15:27.088Z,101218.91
2023-01-25T19:17:55.710Z,101213.72
2023-01-25T19:20:24.335Z,101211.75
2023-01-25T19:22:55.348Z,101206.59
2023-01-25T19:25:24.468Z,101209.09
2023-01-25T19:27:53.115Z,101211.34
2023-01-25T19:30:21.851Z,101208.81
2023-01-25T19:32:50.498Z,101204.22
2023-01-25T19:35:19.192Z,101206.84
2023-01-25T19:37:47.797Z,101195.75
2023-01-25T19:40:17.408Z,101193.91
2023-01-25T19:42:45.993Z,101193.13
2023-01-25T19:45:14.640Z,101193.97
2023-01-25T19:47:43.252Z,101189.78
2023-01-25T19:50:12.529Z,101186.69
2023-01-25T19:52:41.107Z,101184.06
2023-01-25T19:55:10.516Z,101187.63
2023-01-25T19:57:39.469Z,101177.94
2023-01-25T20:00:08.785Z,101175.25
2023-01-25T20:02:37.456Z,101167.16
2023-01-25T20:05:06.362Z,101166.94
2023-01-25T20:07:34.979Z,101166.94
2023-01-25T20:10:03.626Z,101164.81
2023-01-25T20:12:32.237Z,101154.66
2023-01-25T20:15:00.823Z,101150.84
2023-01-25T20:17:29.437Z,101156.03
2023-01-25T20:19:58.089Z,101144.44
2023-01-25T20:22:26.475Z,101147.94
2023-01-25T20:24:55.078Z,101141.09
2023-01-25T20:27:23.645Z,101140.28
2023-01-25T20:29:53.976Z,101140.28
2023-01-25T20:32:32.399Z,101128.31
2023-01-25T20:35:03.680Z,101117.47
2023-01-25T20:37:32.332Z,101123.59
2023-01-25T20:40:00.918Z,101118.22
2023-01-25T20:42:29.573Z,101112.00
2023-01-25T20:44:58.152Z,101109.38
2023-01-25T20:47:26.816Z,101109.38
2023-01-25T20:49:55.412Z,101099.72
2023-01-25T20:52:24.054Z,101095.16
2023-01-25T20:54:53.992Z,101100.81
2023-01-25T20:57:22.639Z,101097.34
2023-01-25T20:59:51.283Z,101098.94
2023-01-25T21:02:19.974Z,101091.88
2023-01-25T21:04:48.636Z,101094.34
2023-01-25T21:07:17.270Z,101099.19
2023-01-25T21:09:45.879Z,101081.50
2023-01-25T21:12:14.454Z,101088.56
2023-01-25T21:14:43.075Z,101092.22
2023-01-25T21:17:12.536Z,101089.41
2023-01-25T21:19:41.106Z,101082.34
2023-01-25T21:22:09.732Z,101083.09
2023-01-25T21:24:38.359Z,101085.06
2023-01-25T21:27:08.131Z,101084.44
2023-01-25T21:29:36.707Z,101074.97
2023-01-25T21:32:05.632Z,101079.28
2023-01-25T21:34:34.216Z,101078.56
2023-01-25T21:39:31.719Z,101075.28
2023-01-25T21:42:00.332Z,101069.19
2023-01-25T21:44:46.259Z,101069.06
2023-01-25T21:47:29.340Z,101074.03
2023-01-25T21:50:16.270Z,101076.44
2023-01-25T21:52:45.021Z,101070.47
2023-01-25T21:55:13.530Z,101070.66
2023-01-25T21:57:47.089Z,101063.94
2023-01-25T22:00:17.266Z,101065.50
2023-01-25T22:02:45.980Z,101062.97
2023-01-25T22:05:14.671Z,101060.31
2023-01-25T22:07:43.553Z,101061.09
2023-01-25T22:10:12.687Z,101060.31
2023-01-25T22:12:41.455Z,101060.31
2023-01-25T22:15:10.176Z,101057.53
2023-01-25T22:17:39.035Z,101048.69
2023-01-25T22:20:08.586Z,101044.56
2023-01-25T22:22:37.357Z,101049.00
2023-01-25T22:25:06.196Z,101045.31
2023-01-25T22:27:53.582Z,101034.56
2023-01-25T22:30:22.313Z,101029.19
2023-01-25T22:32:50.981Z,101034.44
2023-01-25T22:35:19.580Z,101026.56
2023-01-25T22:37:48.260Z,101030.38
2023-01-25T22:40:16.775Z,101026.34
2023-01-25T22:42:45.418Z,101024.56
2023-01-25T22:45:14.138Z,101016.56
2023-01-25T22:47:44.428Z,101008.50
2023-01-25T22:50:13.220Z,101012.78
2023-01-25T22:52:42.086Z,101011.75
2023-01-25T22:55:10.879Z,101008.06
2023-01-25T22:57:39.599Z,101007.97
2023-01-25T23:00:10.878Z,101001.75
2023-01-25T23:02:39.691Z,101004.41
2023-01-25T23:05:08.901Z,100999.88
2023-01-25T23:07:37.546Z,100994.59
2023-01-25T23:10:06.593Z,100988.81
2023-01-25T23:12:35.222Z,100991.47
2023-01-25T23:15:07.164Z,100984.72
2023-01-25T23:17:53.186Z,100992.06
2023-01-25T23:20:21.838Z,100989.53
2023-01-25T23:22:52.652Z,100988.91
2023-01-25T23:25:21.287Z,100991.44
2023-01-25T23:27:51.077Z,100977.38
2023-01-25T23:30:19.578Z,100986.91
2023-01-25T23:32:49.404Z,100987.75
2023-01-25T23:35:20.958Z,100980.72
2023-01-25T23:37:50.037Z,100983.88
2023-01-25T23:40:18.794Z,100979.66
2023-01-25T23:42:47.307Z,100976.41
2023-01-25T23:45:16.007Z,100978.94
2023-01-25T23:47:44.632Z,100977.03
2023-01-25T23:50:13.715Z,100971.97
2023-01-25T23:52:42.472Z,100968.41
2023-01-25T23:55:11.295Z,100976.09
2023-01-25T23:57:39.967Z,100968.31
